sensor_id;sensor_type;location;lat;lon;timestamp;temperature;humidity
24522;DHT22;12680;57.804;12.190;2023-07-16T06:25:07;18.50;99.90
24522;DHT22;12680;57.804;12.190;2023-07-16T06:27:34;18.60;99.90
24522;DHT22;12680;57.804;12.190;2023-07-16T06:30:00;21.20;99.90
24522;DHT22;12680;57.804;12.190;2023-07-16T06:32:27;21.30;99.90
24522;DHT22;12680;57.804;12.190;2023-07-16T06:34:54;21.00;99.90
24522;DHT22;12680;57.804;12.190;2023-07-16T07:46:04;20.90;99.90
24522;DHT22;12680;57.804;12.190;2023-07-16T07:48:32;21.00;99.90
24522;DHT22;12680;57.804;12.190;2023-07-16T07:50:58;20.90;99.90
24522;DHT22;12680;57.804;12.190;2023-07-16T07:53:25;20.90;99.90
24522;DHT22;12680;57.804;12.190;2023-07-16T07:55:52;22.60;99.90
24522;DHT22;12680;57.804;12.190;2023-07-16T07:58:20;20.60;99.90
24522;DHT22;12680;57.804;12.190;2023-07-16T08:00:47;20.30;99.90
24522;DHT22;12680;57.804;12.190;2023-07-16T08:03:13;21.00;99.90
24522;DHT22;12680;57.804;12.190;2023-07-16T08:05:40;20.60;99.90
24522;DHT22;12680;57.804;12.190;2023-07-16T08:08:07;20.50;99.90
24522;DHT22;12680;57.804;12.190;2023-07-16T08:10:33;20.70;99.90
24522;DHT22;12680;57.804;12.190;2023-07-16T08:13:00;20.80;99.90
24522;DHT22;12680;57.804;12.190;2023-07-16T08:15:27;20.80;99.90
24522;DHT22;12680;57.804;12.190;2023-07-16T08:17:53;20.50;99.90
24522;DHT22;12680;57.804;12.190;2023-07-16T08:20:22;20.30;99.90
24522;DHT22;12680;57.804;12.190;2023-07-16T08:22:49;20.20;99.90
24522;DHT22;12680;57.804;12.190;2023-07-16T08:25:16;20.10;99.90
24522;DHT22;12680;57.804;12.190;2023-07-16T08:27:42;20.00;99.90
24522;DHT22;12680;57.804;12.190;2023-07-16T08:30:09;20.00;99.90
24522;DHT22;12680;57.804;12.190;2023-07-16T08:32:36;20.10;99.90
24522;DHT22;12680;57.804;12.190;2023-07-16T08:35:03;20.20;99.90
24522;DHT22;12680;57.804;12.190;2023-07-16T08:37:30;20.20;99.90
24522;DHT22;12680;57.804;12.190;2023-07-16T08:39:56;21.10;99.90
24522;DHT22;12680;57.804;12.190;2023-07-16T08:42:23;20.20;99.90
24522;DHT22;12680;57.804;12.190;2023-07-16T08:44:50;20.10;99.90
24522;DHT22;12680;57.804;12.190;2023-07-16T08:47:17;20.50;99.90
24522;DHT22;12680;57.804;12.190;2023-07-16T08:49:56;21.40;99.90
24522;DHT22;12680;57.804;12.190;2023-07-16T08:52:22;20.00;99.90
24522;DHT22;12680;57.804;12.190;2023-07-16T08:54:49;20.10;99.90
24522;DHT22;12680;57.804;12.190;2023-07-16T08:57:16;20.30;99.90
24522;DHT22;12680;57.804;12.190;2023-07-16T08:59:42;20.40;99.90
24522;DHT22;12680;57.804;12.190;2023-07-16T09:02:11;20.50;99.90
24522;DHT22;12680;57.804;12.190;2023-07-16T09:04:38;23.00;99.90
24522;DHT22;12680;57.804;12.190;2023-07-16T09:07:04;20.90;99.90
24522;DHT22;12680;57.804;12.190;2023-07-16T09:09:31;20.90;99.90
24522;DHT22;12680;57.804;12.190;2023-07-16T09:11:58;21.00;99.90
24522;DHT22;12680;57.804;12.190;2023-07-16T09:14:25;21.10;99.90
24522;DHT22;12680;57.804;12.190;2023-07-16T09:16:51;21.10;99.90
24522;DHT22;12680;57.804;12.190;2023-07-16T09:19:19;21.10;99.90
24522;DHT22;12680;57.804;12.190;2023-07-16T09:21:46;23.30;99.90
24522;DHT22;12680;57.804;12.190;2023-07-16T09:24:13;21.50;99.50
24522;DHT22;12680;57.804;12.190;2023-07-16T09:26:49;24.30;99.90
24522;DHT22;12680;57.804;12.190;2023-07-16T09:29:16;21.70;99.70
24522;DHT22;12680;57.804;12.190;2023-07-16T09:31:56;23.40;99.90
24522;DHT22;12680;57.804;12.190;2023-07-16T09:34:23;22.10;99.20
24522;DHT22;12680;57.804;12.190;2023-07-16T09:36:50;22.30;98.50
24522;DHT22;12680;57.804;12.190;2023-07-16T09:39:17;22.40;98.40
24522;DHT22;12680;57.804;12.190;2023-07-16T09:41:46;23.50;98.40
24522;DHT22;12680;57.804;12.190;2023-07-16T09:44:13;23.60;98.00
24522;DHT22;12680;57.804;12.190;2023-07-16T09:46:40;22.30;97.50
24522;DHT22;12680;57.804;12.190;2023-07-16T09:49:08;22.30;97.30
24522;DHT22;12680;57.804;12.190;2023-07-16T09:51:38;22.20;97.40
24522;DHT22;12680;57.804;12.190;2023-07-16T09:54:05;22.20;97.40
24522;DHT22;12680;57.804;12.190;2023-07-16T09:56:43;24.20;97.90
24522;DHT22;12680;57.804;12.190;2023-07-16T09:59:12;22.20;97.20
24522;DHT22;12680;57.804;12.190;2023-07-16T10:01:39;24.10;97.30
24522;DHT22;12680;57.804;12.190;2023-07-16T10:04:13;22.00;96.90
24522;DHT22;12680;57.804;12.190;2023-07-16T10:07:19;22.10;97.10
24522;DHT22;12680;57.804;12.190;2023-07-16T10:12:11;22.50;97.10
24522;DHT22;12680;57.804;12.190;2023-07-16T10:14:39;22.60;96.80
24522;DHT22;12680;57.804;12.190;2023-07-16T10:17:06;24.70;96.90
24522;DHT22;12680;57.804;12.190;2023-07-16T10:19:45;22.50;96.50
24522;DHT22;12680;57.804;12.190;2023-07-16T10:22:12;22.40;96.40
24522;DHT22;12680;57.804;12.190;2023-07-16T10:24:39;22.20;96.50
24522;DHT22;12680;57.804;12.190;2023-07-16T10:27:06;24.40;96.90
24522;DHT22;12680;57.804;12.190;2023-07-16T10:29:33;21.90;96.50
24522;DHT22;12680;57.804;12.190;2023-07-16T10:32:03;22.70;96.80
24522;DHT22;12680;57.804;12.190;2023-07-16T10:34:31;21.40;96.50
24522;DHT22;12680;57.804;12.190;2023-07-16T10:36:57;21.70;96.90
24522;DHT22;12680;57.804;12.190;2023-07-16T10:39:24;21.40;97.10
24522;DHT22;12680;57.804;12.190;2023-07-16T10:41:51;20.80;97.40
24522;DHT22;12680;57.804;12.190;2023-07-16T10:44:19;21.40;98.00
24522;DHT22;12680;57.804;12.190;2023-07-16T10:46:47;21.10;98.00
24522;DHT22;12680;57.804;12.190;2023-07-16T10:49:13;22.50;98.40
24522;DHT22;12680;57.804;12.190;2023-07-16T10:51:40;21.60;98.10
24522;DHT22;12680;57.804;12.190;2023-07-16T10:54:07;23.80;98.60
24522;DHT22;12680;57.804;12.190;2023-07-16T10:56:35;22.30;98.20
24522;DHT22;12680;57.804;12.190;2023-07-16T10:59:02;22.10;98.00
24522;DHT22;12680;57.804;12.190;2023-07-16T11:01:32;22.90;98.00
24522;DHT22;12680;57.804;12.190;2023-07-16T11:04:06;22.30;97.80
24522;DHT22;12680;57.804;12.190;2023-07-16T11:06:33;22.20;97.40
24522;DHT22;12680;57.804;12.190;2023-07-16T11:09:06;23.40;97.80
24522;DHT22;12680;57.804;12.190;2023-07-16T11:11:34;21.90;97.70
24522;DHT22;12680;57.804;12.190;2023-07-16T11:14:04;22.20;97.60
24522;DHT22;12680;57.804;12.190;2023-07-16T11:16:35;21.60;97.50
24522;DHT22;12680;57.804;12.190;2023-07-16T11:19:05;21.30;97.60
24522;DHT22;12680;57.804;12.190;2023-07-16T11:21:33;21.10;97.90
24522;DHT22;12680;57.804;12.190;2023-07-16T11:26:55;20.70;98.40
24522;DHT22;12680;57.804;12.190;2023-07-16T11:29:25;21.60;99.30
24522;DHT22;12680;57.804;12.190;2023-07-16T11:31:52;22.30;99.30
24522;DHT22;12680;57.804;12.190;2023-07-16T11:34:19;21.40;98.70
24522;DHT22;12680;57.804;12.190;2023-07-16T11:36:48;24.10;99.30
24522;DHT22;12680;57.804;12.190;2023-07-16T11:39:17;21.80;98.70
24522;DHT22;12680;57.804;12.190;2023-07-16T11:41:53;22.60;99.10
24522;DHT22;12680;57.804;12.190;2023-07-16T11:44:23;21.70;98.90
24522;DHT22;12680;57.804;12.190;2023-07-16T11:46:50;22.30;98.70
24522;DHT22;12680;57.804;12.190;2023-07-16T11:49:17;22.60;98.60
24522;DHT22;12680;57.804;12.190;2023-07-16T11:51:43;21.50;98.40
24522;DHT22;12680;57.804;12.190;2023-07-16T11:54:10;23.80;99.20
24522;DHT22;12680;57.804;12.190;2023-07-16T11:56:37;21.10;98.80
24522;DHT22;12680;57.804;12.190;2023-07-16T11:59:04;21.20;99.00
24522;DHT22;12680;57.804;12.190;2023-07-16T12:01:30;21.30;99.10
24522;DHT22;12680;57.804;12.190;2023-07-16T12:03:57;21.50;99.10
24522;DHT22;12680;57.804;12.190;2023-07-16T12:06:24;22.60;99.30
24522;DHT22;12680;57.804;12.190;2023-07-16T12:08:51;21.40;99.20
24522;DHT22;12680;57.804;12.190;2023-07-16T12:11:17;21.50;99.30
24522;DHT22;12680;57.804;12.190;2023-07-16T12:13:44;21.70;99.30
24522;DHT22;12680;57.804;12.190;2023-07-16T12:16:11;22.40;99.40
24522;DHT22;12680;57.804;12.190;2023-07-16T12:18:37;22.30;99.10
24522;DHT22;12680;57.804;12.190;2023-07-16T12:21:04;23.50;99.30
24522;DHT22;12680;57.804;12.190;2023-07-16T12:23:32;23.40;99.30
24522;DHT22;12680;57.804;12.190;2023-07-16T12:25:59;24.10;99.20
24522;DHT22;12680;57.804;12.190;2023-07-16T12:28:25;22.70;99.00
24522;DHT22;12680;57.804;12.190;2023-07-16T12:30:52;22.30;98.40
24522;DHT22;12680;57.804;12.190;2023-07-16T12:33:19;21.80;97.80
24522;DHT22;12680;57.804;12.190;2023-07-16T12:35:45;22.20;98.30
24522;DHT22;12680;57.804;12.190;2023-07-16T12:38:13;21.80;98.00
24522;DHT22;12680;57.804;12.190;2023-07-16T12:40:40;21.90;97.90
24522;DHT22;12680;57.804;12.190;2023-07-16T12:43:07;23.80;98.00
24522;DHT22;12680;57.804;12.190;2023-07-16T12:45:34;22.10;97.60
24522;DHT22;12680;57.804;12.190;2023-07-16T12:48:00;22.30;97.70
24522;DHT22;12680;57.804;12.190;2023-07-16T12:50:27;22.70;97.60
24522;DHT22;12680;57.804;12.190;2023-07-16T12:52:55;22.80;97.40
24522;DHT22;12680;57.804;12.190;2023-07-16T12:55:22;22.20;97.10
24522;DHT22;12680;57.804;12.190;2023-07-16T12:57:50;23.00;97.40
24522;DHT22;12680;57.804;12.190;2023-07-16T13:00:16;22.90;97.30
24522;DHT22;12680;57.804;12.190;2023-07-16T13:02:43;22.60;96.40
24522;DHT22;12680;57.804;12.190;2023-07-16T13:05:10;23.10;96.60
24522;DHT22;12680;57.804;12.190;2023-07-16T13:07:36;24.60;97.00
24522;DHT22;12680;57.804;12.190;2023-07-16T13:10:07;24.10;96.50
24522;DHT22;12680;57.804;12.190;2023-07-16T13:12:48;23.10;95.90
24522;DHT22;12680;57.804;12.190;2023-07-16T13:15:15;23.20;95.60
24522;DHT22;12680;57.804;12.190;2023-07-16T13:17:42;24.40;96.10
24522;DHT22;12680;57.804;12.190;2023-07-16T13:20:09;23.30;95.50
24522;DHT22;12680;57.804;12.190;2023-07-16T13:22:35;23.20;95.20
24522;DHT22;12680;57.804;12.190;2023-07-16T13:25:02;24.50;95.80
24522;DHT22;12680;57.804;12.190;2023-07-16T13:27:29;23.40;95.20
24522;DHT22;12680;57.804;12.190;2023-07-16T13:29:56;23.40;94.90
24522;DHT22;12680;57.804;12.190;2023-07-16T13:32:22;23.30;94.60
24522;DHT22;12680;57.804;12.190;2023-07-16T13:34:49;23.90;94.70
24522;DHT22;12680;57.804;12.190;2023-07-16T13:37:16;24.70;95.00
24522;DHT22;12680;57.804;12.190;2023-07-16T13:39:42;23.60;95.00
24522;DHT22;12680;57.804;12.190;2023-07-16T13:42:09;24.50;95.10
24522;DHT22;12680;57.804;12.190;2023-07-16T13:44:49;24.50;95.20
24522;DHT22;12680;57.804;12.190;2023-07-16T13:47:15;23.70;95.20
24522;DHT22;12680;57.804;12.190;2023-07-16T13:49:42;24.10;95.20
24522;DHT22;12680;57.804;12.190;2023-07-16T13:52:09;23.30;95.00
24522;DHT22;12680;57.804;12.190;2023-07-16T13:54:36;22.50;95.10
24522;DHT22;12680;57.804;12.190;2023-07-16T13:57:06;24.20;95.80
24522;DHT22;12680;57.804;12.190;2023-07-16T13:59:33;23.50;95.80
24522;DHT22;12680;57.804;12.190;2023-07-16T14:02:00;23.70;95.90
24522;DHT22;12680;57.804;12.190;2023-07-16T14:04:28;24.50;95.90
24522;DHT22;12680;57.804;12.190;2023-07-16T14:06:55;23.10;95.40
24522;DHT22;12680;57.804;12.190;2023-07-16T14:09:22;24.00;95.80
24522;DHT22;12680;57.804;12.190;2023-07-16T14:11:49;24.10;95.90
24522;DHT22;12680;57.804;12.190;2023-07-16T14:14:16;22.80;95.50
24522;DHT22;12680;57.804;12.190;2023-07-16T14:16:43;22.90;95.10
24522;DHT22;12680;57.804;12.190;2023-07-16T14:19:10;22.90;95.00
24522;DHT22;12680;57.804;12.190;2023-07-16T14:21:39;23.50;95.10
24522;DHT22;12680;57.804;12.190;2023-07-16T14:24:06;23.00;94.80
24522;DHT22;12680;57.804;12.190;2023-07-16T14:26:32;23.10;95.10
24522;DHT22;12680;57.804;12.190;2023-07-16T14:29:00;23.30;94.90
24522;DHT22;12680;57.804;12.190;2023-07-16T14:31:26;24.00;94.60
24522;DHT22;12680;57.804;12.190;2023-07-16T14:33:53;23.40;94.40
24522;DHT22;12680;57.804;12.190;2023-07-16T14:36:20;23.90;94.30
24522;DHT22;12680;57.804;12.190;2023-07-16T14:38:48;23.00;93.80
24522;DHT22;12680;57.804;12.190;2023-07-16T14:41:15;24.20;94.30
24522;DHT22;12680;57.804;12.190;2023-07-16T14:43:42;22.40;94.20
24522;DHT22;12680;57.804;12.190;2023-07-16T14:46:09;23.00;94.70
24522;DHT22;12680;57.804;12.190;2023-07-16T14:48:43;22.20;94.70
24522;DHT22;12680;57.804;12.190;2023-07-16T14:51:13;23.80;95.30
24522;DHT22;12680;57.804;12.190;2023-07-16T14:53:40;23.50;95.40
24522;DHT22;12680;57.804;12.190;2023-07-16T14:56:07;21.80;95.00
24522;DHT22;12680;57.804;12.190;2023-07-16T14:58:33;24.00;95.70
24522;DHT22;12680;57.804;12.190;2023-07-16T15:01:01;23.70;96.00
24522;DHT22;12680;57.804;12.190;2023-07-16T15:03:34;22.00;95.80
24522;DHT22;12680;57.804;12.190;2023-07-16T15:06:03;21.50;95.90
24522;DHT22;12680;57.804;12.190;2023-07-16T15:08:29;21.80;96.00
24522;DHT22;12680;57.804;12.190;2023-07-16T15:10:57;23.80;96.40
24522;DHT22;12680;57.804;12.190;2023-07-16T15:13:24;23.90;96.20
24522;DHT22;12680;57.804;12.190;2023-07-16T15:15:55;23.10;95.80
24522;DHT22;12680;57.804;12.190;2023-07-16T15:18:24;23.70;95.90
24522;DHT22;12680;57.804;12.190;2023-07-16T15:21:10;22.10;95.50
24522;DHT22;12680;57.804;12.190;2023-07-16T15:23:36;22.10;95.50
24522;DHT22;12680;57.804;12.190;2023-07-16T15:26:04;23.40;96.00
24522;DHT22;12680;57.804;12.190;2023-07-16T15:28:33;22.50;95.30
24522;DHT22;12680;57.804;12.190;2023-07-16T15:31:01;22.60;95.00
24522;DHT22;12680;57.804;12.190;2023-07-16T15:33:28;22.60;94.40
24522;DHT22;12680;57.804;12.190;2023-07-16T15:35:56;22.60;94.40
24522;DHT22;12680;57.804;12.190;2023-07-16T15:38:23;23.00;94.80
24522;DHT22;12680;57.804;12.190;2023-07-16T15:40:50;22.20;94.60
24522;DHT22;12680;57.804;12.190;2023-07-16T15:43:18;22.00;94.80
24522;DHT22;12680;57.804;12.190;2023-07-16T15:45:44;21.80;94.80
24522;DHT22;12680;57.804;12.190;2023-07-16T15:48:11;21.70;94.80
24522;DHT22;12680;57.804;12.190;2023-07-16T15:50:39;22.90;95.50
24522;DHT22;12680;57.804;12.190;2023-07-16T15:53:07;22.50;95.60
24522;DHT22;12680;57.804;12.190;2023-07-16T15:55:34;22.20;95.50
24522;DHT22;12680;57.804;12.190;2023-07-16T15:58:01;21.90;95.60
24522;DHT22;12680;57.804;12.190;2023-07-16T16:00:28;21.30;95.50
24522;DHT22;12680;57.804;12.190;2023-07-16T16:02:54;21.10;95.60
24522;DHT22;12680;57.804;12.190;2023-07-16T16:05:22;21.80;95.90
24522;DHT22;12680;57.804;12.190;2023-07-16T16:08:09;20.30;95.70
24522;DHT22;12680;57.804;12.190;2023-07-16T16:10:35;21.80;96.40
24522;DHT22;12680;57.804;12.190;2023-07-16T16:13:02;20.80;96.50
24522;DHT22;12680;57.804;12.190;2023-07-16T16:15:29;20.40;96.50
24522;DHT22;12680;57.804;12.190;2023-07-16T16:17:55;20.40;96.70
24522;DHT22;12680;57.804;12.190;2023-07-16T16:20:22;22.50;97.40
24522;DHT22;12680;57.804;12.190;2023-07-16T16:22:49;21.10;97.30
24522;DHT22;12680;57.804;12.190;2023-07-16T16:25:15;22.00;97.80
24522;DHT22;12680;57.804;12.190;2023-07-16T16:27:43;21.30;97.80
24522;DHT22;12680;57.804;12.190;2023-07-16T16:30:10;21.10;97.90
24522;DHT22;12680;57.804;12.190;2023-07-16T16:32:38;20.00;97.80
24522;DHT22;12680;57.804;12.190;2023-07-16T16:35:05;20.10;97.90
24522;DHT22;12680;57.804;12.190;2023-07-16T16:37:32;20.10;97.90
24522;DHT22;12680;57.804;12.190;2023-07-16T16:39:58;20.20;97.90
24522;DHT22;12680;57.804;12.190;2023-07-16T16:42:28;20.20;98.10
24522;DHT22;12680;57.804;12.190;2023-07-16T16:44:55;22.00;98.70
24522;DHT22;12680;57.804;12.190;2023-07-16T16:47:21;22.40;98.70
24522;DHT22;12680;57.804;12.190;2023-07-16T16:49:48;20.30;98.00
24522;DHT22;12680;57.804;12.190;2023-07-16T16:52:15;22.00;98.60
24522;DHT22;12680;57.804;12.190;2023-07-16T16:54:42;22.20;98.70
24522;DHT22;12680;57.804;12.190;2023-07-16T16:57:08;21.70;98.70
24522;DHT22;12680;57.804;12.190;2023-07-16T16:59:35;22.70;99.10
24522;DHT22;12680;57.804;12.190;2023-07-16T17:02:02;23.20;99.20
24522;DHT22;12680;57.804;12.190;2023-07-16T17:04:29;20.70;98.40
24522;DHT22;12680;57.804;12.190;2023-07-16T17:06:56;22.40;98.70
24522;DHT22;12680;57.804;12.190;2023-07-16T17:09:25;22.00;98.60
24522;DHT22;12680;57.804;12.190;2023-07-16T17:11:53;21.90;98.50
24522;DHT22;12680;57.804;12.190;2023-07-16T17:14:20;20.70;98.30
24522;DHT22;12680;57.804;12.190;2023-07-16T17:16:47;21.40;98.70
24522;DHT22;12680;57.804;12.190;2023-07-16T17:19:14;20.20;98.50
24522;DHT22;12680;57.804;12.190;2023-07-16T17:21:40;20.10;98.60
24522;DHT22;12680;57.804;12.190;2023-07-16T17:24:07;21.40;99.10
24522;DHT22;12680;57.804;12.190;2023-07-16T17:26:34;21.50;99.10
24522;DHT22;12680;57.804;12.190;2023-07-16T17:29:01;20.00;98.80
24522;DHT22;12680;57.804;12.190;2023-07-16T17:31:28;20.00;98.70
24522;DHT22;12680;57.804;12.190;2023-07-16T17:33:55;21.60;99.10
24522;DHT22;12680;57.804;12.190;2023-07-16T17:36:21;20.30;98.80
24522;DHT22;12680;57.804;12.190;2023-07-16T17:38:49;22.50;99.30
24522;DHT22;12680;57.804;12.190;2023-07-16T17:41:15;22.30;99.10
24522;DHT22;12680;57.804;12.190;2023-07-16T17:43:43;20.10;98.20
24522;DHT22;12680;57.804;12.190;2023-07-16T17:46:10;22.00;98.80
24522;DHT22;12680;57.804;12.190;2023-07-16T17:48:37;21.90;98.80
24522;DHT22;12680;57.804;12.190;2023-07-16T17:51:04;19.90;98.10
24522;DHT22;12680;57.804;12.190;2023-07-16T18:37:42;20.00;98.00
24522;DHT22;12680;57.804;12.190;2023-07-16T18:40:08;22.60;99.10
24522;DHT22;12680;57.804;12.190;2023-07-16T18:42:37;20.70;97.10
24522;DHT22;12680;57.804;12.190;2023-07-16T18:45:03;20.60;96.60
24522;DHT22;12680;57.804;12.190;2023-07-16T18:47:32;20.30;96.60
24522;DHT22;12680;57.804;12.190;2023-07-16T18:49:59;20.00;96.60
24522;DHT22;12680;57.804;12.190;2023-07-16T18:52:26;19.70;96.60
24522;DHT22;12680;57.804;12.190;2023-07-16T20:15:57;17.60;98.80
24522;DHT22;12680;57.804;12.190;2023-07-16T20:18:24;17.50;99.10
24522;DHT22;12680;57.804;12.190;2023-07-16T20:20:51;17.50;99.20
24522;DHT22;12680;57.804;12.190;2023-07-16T20:23:19;17.40;99.20
24522;DHT22;12680;57.804;12.190;2023-07-16T20:25:46;17.40;99.20
24522;DHT22;12680;57.804;12.190;2023-07-16T20:28:17;17.30;99.30
24522;DHT22;12680;57.804;12.190;2023-07-16T20:30:43;17.30;99.30
24522;DHT22;12680;57.804;12.190;2023-07-16T20:33:10;17.20;99.30
24522;DHT22;12680;57.804;12.190;2023-07-16T20:35:37;19.70;99.90
24522;DHT22;12680;57.804;12.190;2023-07-16T20:38:04;17.60;99.60
24522;DHT22;12680;57.804;12.190;2023-07-16T20:40:33;18.20;99.80
24522;DHT22;12680;57.804;12.190;2023-07-16T20:42:59;17.10;99.50
24522;DHT22;12680;57.804;12.190;2023-07-16T20:45:26;17.00;99.50
24522;DHT22;12680;57.804;12.190;2023-07-16T20:47:57;17.10;99.60
24522;DHT22;12680;57.804;12.190;2023-07-16T20:50:28;20.30;99.90
24522;DHT22;12680;57.804;12.190;2023-07-16T20:52:55;19.80;99.90
24522;DHT22;12680;57.804;12.190;2023-07-16T20:55:23;17.20;99.80
24522;DHT22;12680;57.804;12.190;2023-07-16T20:57:50;19.50;99.90
24522;DHT22;12680;57.804;12.190;2023-07-16T21:00:19;18.70;99.90
24522;DHT22;12680;57.804;12.190;2023-07-16T21:02:54;17.20;99.70
24522;DHT22;12680;57.804;12.190;2023-07-16T21:05:22;17.30;99.80
24522;DHT22;12680;57.804;12.190;2023-07-16T21:07:49;17.90;99.90
24522;DHT22;12680;57.804;12.190;2023-07-16T21:10:16;19.60;99.90
24522;DHT22;12680;57.804;12.190;2023-07-16T21:12:45;18.20;99.90
24522;DHT22;12680;57.804;12.190;2023-07-16T21:15:12;17.30;99.80
24522;DHT22;12680;57.804;12.190;2023-07-16T21:17:39;19.80;99.90
24522;DHT22;12680;57.804;12.190;2023-07-16T21:20:06;18.80;99.90
24522;DHT22;12680;57.804;12.190;2023-07-16T21:22:36;17.30;99.90
24522;DHT22;12680;57.804;12.190;2023-07-16T21:25:03;20.10;99.90
24522;DHT22;12680;57.804;12.190;2023-07-16T21:27:32;17.20;99.90
24522;DHT22;12680;57.804;12.190;2023-07-16T21:29:58;17.30;99.90
24522;DHT22;12680;57.804;12.190;2023-07-16T21:32:26;17.20;99.90
24522;DHT22;12680;57.804;12.190;2023-07-16T21:34:52;17.10;99.90
24522;DHT22;12680;57.804;12.190;2023-07-16T21:37:20;17.20;99.90
24522;DHT22;12680;57.804;12.190;2023-07-16T21:39:46;17.10;99.90
24522;DHT22;12680;57.804;12.190;2023-07-16T21:42:13;17.00;99.90
24522;DHT22;12680;57.804;12.190;2023-07-16T21:44:40;17.00;99.90
24522;DHT22;12680;57.804;12.190;2023-07-16T21:47:06;17.90;99.90
24522;DHT22;12680;57.804;12.190;2023-07-16T21:49:34;16.90;99.90
24522;DHT22;12680;57.804;12.190;2023-07-16T21:52:01;17.40;99.90
24522;DHT22;12680;57.804;12.190;2023-07-16T21:54:33;16.90;99.90
24522;DHT22;12680;57.804;12.190;2023-07-16T21:57:01;16.80;99.90
24522;DHT22;12680;57.804;12.190;2023-07-16T21:59:28;16.80;99.90
24522;DHT22;12680;57.804;12.190;2023-07-16T22:01:55;16.70;99.90
24522;DHT22;12680;57.804;12.190;2023-07-16T22:04:22;19.10;99.90
24522;DHT22;12680;57.804;12.190;2023-07-16T22:06:49;16.60;99.90
24522;DHT22;12680;57.804;12.190;2023-07-16T22:09:16;16.60;99.90
24522;DHT22;12680;57.804;12.190;2023-07-16T22:11:43;16.60;99.90
24522;DHT22;12680;57.804;12.190;2023-07-16T22:14:11;16.60;99.90
24522;DHT22;12680;57.804;12.190;2023-07-16T22:16:38;16.60;99.90
24522;DHT22;12680;57.804;12.190;2023-07-16T22:19:05;16.50;99.90
24522;DHT22;12680;57.804;12.190;2023-07-16T22:21:55;16.50;99.90
24522;DHT22;12680;57.804;12.190;2023-07-16T22:24:21;16.50;99.90
24522;DHT22;12680;57.804;12.190;2023-07-16T22:26:48;17.50;99.90
24522;DHT22;12680;57.804;12.190;2023-07-16T22:29:14;17.50;99.90
24522;DHT22;12680;57.804;12.190;2023-07-16T22:31:41;16.50;99.90
24522;DHT22;12680;57.804;12.190;2023-07-16T22:34:08;16.80;99.90
24522;DHT22;12680;57.804;12.190;2023-07-16T22:36:34;16.60;99.90
24522;DHT22;12680;57.804;12.190;2023-07-16T22:39:01;18.80;99.90
24522;DHT22;12680;57.804;12.190;2023-07-16T22:41:28;16.70;99.90
24522;DHT22;12680;57.804;12.190;2023-07-16T22:43:55;16.70;99.90
24522;DHT22;12680;57.804;12.190;2023-07-16T22:46:21;17.80;99.90
24522;DHT22;12680;57.804;12.190;2023-07-16T22:48:48;16.70;99.90
24522;DHT22;12680;57.804;12.190;2023-07-16T22:51:19;16.80;99.90
24522;DHT22;12680;57.804;12.190;2023-07-16T22:53:46;16.80;99.90
24522;DHT22;12680;57.804;12.190;2023-07-16T22:56:13;19.30;99.90
24522;DHT22;12680;57.804;12.190;2023-07-16T22:58:39;18.60;99.90
24522;DHT22;12680;57.804;12.190;2023-07-16T23:01:07;16.80;99.90
24522;DHT22;12680;57.804;12.190;2023-07-16T23:03:35;18.90;99.90
24522;DHT22;12680;57.804;12.190;2023-07-16T23:06:02;16.90;99.90
24522;DHT22;12680;57.804;12.190;2023-07-16T23:08:29;16.90;99.90
24522;DHT22;12680;57.804;12.190;2023-07-16T23:10:55;16.80;99.90
24522;DHT22;12680;57.804;12.190;2023-07-16T23:13:22;16.90;99.90
24522;DHT22;12680;57.804;12.190;2023-07-16T23:15:49;18.60;99.90
24522;DHT22;12680;57.804;12.190;2023-07-16T23:18:16;16.90;99.90
24522;DHT22;12680;57.804;12.190;2023-07-16T23:20:42;16.90;99.90
24522;DHT22;12680;57.804;12.190;2023-07-16T23:23:09;18.50;99.90
24522;DHT22;12680;57.804;12.190;2023-07-16T23:25:36;18.40;99.90
24522;DHT22;12680;57.804;12.190;2023-07-16T23:28:04;18.40;99.90
24522;DHT22;12680;57.804;12.190;2023-07-16T23:30:33;17.60;99.90
24522;DHT22;12680;57.804;12.190;2023-07-16T23:33:00;17.00;99.90
24522;DHT22;12680;57.804;12.190;2023-07-16T23:35:27;17.40;99.90
24522;DHT22;12680;57.804;12.190;2023-07-16T23:37:54;19.30;99.90
24522;DHT22;12680;57.804;12.190;2023-07-16T23:40:20;17.00;99.90
24522;DHT22;12680;57.804;12.190;2023-07-16T23:42:48;19.40;99.90
24522;DHT22;12680;57.804;12.190;2023-07-16T23:45:15;17.60;99.90
24522;DHT22;12680;57.804;12.190;2023-07-16T23:47:42;17.10;99.90
24522;DHT22;12680;57.804;12.190;2023-07-16T23:50:09;17.10;99.90
24522;DHT22;12680;57.804;12.190;2023-07-16T23:52:36;17.10;99.90
24522;DHT22;12680;57.804;12.190;2023-07-16T23:55:03;18.20;99.90
24522;DHT22;12680;57.804;12.190;2023-07-16T23:57:29;17.10;99.90
